Time;durP1;ratioP1;P1;durP2;ratioP2;P2;SDS_P1;SDS_P2;PMS_P1;PMS_P2;Temp;Humidity;BMP_temperature;BMP_pressure;BME280_temperature;BME280_humidity;BME280_pressure;Samples;Min_cycle;Max_cycle;Signal;HPM_P1;HPM_P2
2023/09/02 00:00:56;;;;;;;;;;;21.10;69.80;;;;;;5049495;28;1380;-68
2023/09/02 00:03:22;;;;;;;;;;;21.10;69.80;;;;;;5049998;28;815;-68
2023/09/02 00:05:47;;;;;;;;;;;21.10;69.90;;;;;;5050057;28;899;-68
2023/09/02 00:08:13;;;;;;;;;;;21.10;69.80;;;;;;5045416;28;834;-68
2023/09/02 00:10:38;;;;;;;;;;;21.00;69.80;;;;;;5049714;28;1375;-68
2023/09/02 00:13:04;;;;;;;;;;;21.10;69.90;;;;;;5048403;28;875;-68
2023/09/02 00:15:29;;;;;;;;;;;21.10;69.90;;;;;;5050130;28;898;-68
2023/09/02 00:17:55;;;;;;;;;;;21.10;69.90;;;;;;5049668;28;1973;-68
2023/09/02 00:20:21;;;;;;;;;;;21.10;69.90;;;;;;5050375;28;1347;-68
2023/09/02 00:22:46;;;;;;;;;;;21.10;69.90;;;;;;5049453;28;942;-68
2023/09/02 00:25:12;;;;;;;;;;;21.10;69.90;;;;;;5049901;28;884;-68
2023/09/02 00:27:37;;;;;;;;;;;21.10;69.90;;;;;;5049573;28;1023;-68
2023/09/02 00:30:03;;;;;;;;;;;21.10;69.90;;;;;;5048644;28;1268;-68
2023/09/02 00:32:29;;;;;;;;;;;21.10;69.90;;;;;;5049107;28;896;-68
2023/09/02 00:34:54;;;;;;;;;;;21.10;69.90;;;;;;5049058;28;958;-68
2023/09/02 00:37:20;;;;;;;;;;;21.10;69.90;;;;;;5049350;28;903;-68
2023/09/02 00:39:45;;;;;;;;;;;21.10;69.90;;;;;;5047250;28;1977;-68
2023/09/02 00:42:12;;;;;;;;;;;21.10;69.90;;;;;;5049400;28;948;-68
2023/09/02 00:44:37;;;;;;;;;;;21.10;70.00;;;;;;5040076;28;839;-69
2023/09/02 00:47:03;;;;;;;;;;;21.10;70.00;;;;;;5049583;28;947;-68
2023/09/02 00:49:28;;;;;;;;;;;21.10;70.00;;;;;;5049066;28;931;-68
2023/09/02 00:51:54;;;;;;;;;;;21.10;70.70;;;;;;5052096;28;1401;-68
2023/09/02 00:54:19;;;;;;;;;;;21.10;70.00;;;;;;5052732;28;830;-68
2023/09/02 00:56:44;;;;;;;;;;;21.10;70.00;;;;;;5052061;28;871;-68
2023/09/02 00:59:10;;;;;;;;;;;21.10;70.00;;;;;;5045071;28;1983;-68
2023/09/02 01:01:36;;;;;;;;;;;21.10;70.00;;;;;;5042554;28;1281;-68
2023/09/02 01:04:02;;;;;;;;;;;21.10;70.00;;;;;;5048473;28;1570;-68
2023/09/02 01:06:27;;;;;;;;;;;21.10;70.00;;;;;;5034965;28;1262;-68
2023/09/02 01:08:53;;;;;;;;;;;21.10;70.00;;;;;;5052125;28;839;-69
2023/09/02 01:11:19;;;;;;;;;;;21.10;70.00;;;;;;5052419;28;1286;-68
2023/09/02 01:13:44;;;;;;;;;;;21.10;70.10;;;;;;5052309;28;1441;-68
2023/09/02 01:16:09;;;;;;;;;;;21.10;70.00;;;;;;5066403;28;1457;-68
2023/09/02 01:18:36;;;;;;;;;;;21.00;70.00;;;;;;5047779;28;1906;-68
2023/09/02 01:21:08;;;;;;;;;;;21.10;70.00;;;;;;5052600;28;1271;-68
2023/09/02 01:23:40;;;;;;;;;;;21.10;70.10;;;;;;5052793;28;954;-68
2023/09/02 01:26:37;;;;;;;;;;;21.10;70.00;;;;;;5052793;28;1549;-69
2023/09/02 01:29:05;;;;;;;;;;;21.10;70.10;;;;;;5016843;28;1113;-68
2023/09/02 01:31:30;;;;;;;;;;;21.10;70.10;;;;;;5050968;28;1310;-68
2023/09/02 01:33:56;;;;;;;;;;;21.10;70.10;;;;;;5045067;28;903;-68
2023/09/02 01:36:21;;;;;;;;;;;21.10;70.10;;;;;;5043804;28;813;-68
2023/09/02 01:38:47;;;;;;;;;;;21.00;70.00;;;;;;5044429;28;1910;-69
2023/09/02 01:41:12;;;;;;;;;;;21.10;70.10;;;;;;5045963;28;1299;-69
2023/09/02 01:43:38;;;;;;;;;;;21.10;70.20;;;;;;5051730;28;1025;-68
2023/09/02 01:46:04;;;;;;;;;;;21.10;70.10;;;;;;5046904;28;839;-69
2023/09/02 01:48:29;;;;;;;;;;;21.10;70.10;;;;;;5043769;28;1208;-69
2023/09/02 01:50:55;;;;;;;;;;;21.10;70.10;;;;;;5048098;28;1231;-69
2023/09/02 01:53:20;;;;;;;;;;;21.00;70.10;;;;;;5036952;28;883;-66
2023/09/02 01:55:46;;;;;;;;;;;21.10;70.20;;;;;;5047157;28;927;-67
2023/09/02 01:58:11;;;;;;;;;;;21.10;70.10;;;;;;5050884;28;1938;-67
2023/09/02 02:00:38;;;;;;;;;;;21.10;70.20;;;;;;5051827;28;1259;-67
2023/09/02 02:03:04;;;;;;;;;;;21.10;70.20;;;;;;5046102;28;852;-66
2023/09/02 02:05:34;;;;;;;;;;;21.10;70.20;;;;;;5051823;28;774;-67
2023/09/02 02:08:02;;;;;;;;;;;21.10;70.20;;;;;;5040251;28;1340;-67
2023/09/02 02:10:27;;;;;;;;;;;21.10;70.20;;;;;;5046767;28;1292;-67
2023/09/02 02:12:53;;;;;;;;;;;21.10;70.20;;;;;;5047598;28;1155;-67
2023/09/02 02:15:18;;;;;;;;;;;21.10;70.20;;;;;;5048007;28;1077;-68
2023/09/02 02:17:44;;;;;;;;;;;21.10;70.20;;;;;;5052004;28;1902;-68
2023/09/02 02:20:09;;;;;;;;;;;21.10;70.20;;;;;;5053195;28;1314;-68
2023/09/02 02:22:35;;;;;;;;;;;21.10;70.20;;;;;;5044654;28;868;-66
2023/09/02 02:25:00;;;;;;;;;;;21.10;70.20;;;;;;5051509;28;1064;-66
2023/09/02 02:27:26;;;;;;;;;;;21.10;70.20;;;;;;5051567;28;892;-66
2023/09/02 02:29:51;;;;;;;;;;;21.00;70.20;;;;;;5050755;28;1349;-66
2023/09/02 02:32:16;;;;;;;;;;;21.10;70.30;;;;;;5051359;28;950;-69
2023/09/02 02:34:42;;;;;;;;;;;21.10;70.20;;;;;;5051469;28;848;-69
2023/09/02 02:37:08;;;;;;;;;;;21.10;70.30;;;;;;5051337;28;800;-69
2023/09/02 02:39:33;;;;;;;;;;;21.10;70.30;;;;;;5050082;28;1960;-68
2023/09/02 02:41:59;;;;;;;;;;;21.10;70.30;;;;;;5051229;28;1417;-69
2023/09/02 02:44:24;;;;;;;;;;;21.10;70.30;;;;;;5051043;28;828;-69
2023/09/02 02:46:50;;;;;;;;;;;21.10;70.30;;;;;;5051420;28;867;-68
2023/09/02 02:49:15;;;;;;;;;;;21.10;70.30;;;;;;5050419;28;899;-69
2023/09/02 02:51:41;;;;;;;;;;;21.00;70.20;;;;;;5050625;28;1376;-68
2023/09/02 02:54:06;;;;;;;;;;;21.10;70.30;;;;;;5050378;28;851;-68
2023/09/02 02:56:32;;;;;;;;;;;21.00;70.20;;;;;;5050850;28;1085;-68
2023/09/02 02:58:57;;;;;;;;;;;21.00;70.30;;;;;;5050344;28;1973;-68
2023/09/02 03:01:23;;;;;;;;;;;21.10;70.30;;;;;;5050170;28;1359;-69
2023/09/02 03:03:48;;;;;;;;;;;21.00;70.30;;;;;;5050798;28;946;-68
2023/09/02 03:06:20;;;;;;;;;;;21.10;70.30;;;;;;5050580;28;926;-68
2023/09/02 03:08:45;;;;;;;;;;;21.10;70.40;;;;;;5044910;28;904;-69
2023/09/02 03:11:11;;;;;;;;;;;21.10;70.30;;;;;;5050357;28;1349;-69
2023/09/02 03:13:37;;;;;;;;;;;21.10;70.40;;;;;;5044030;28;882;-69
2023/09/02 03:16:03;;;;;;;;;;;21.10;70.40;;;;;;5049943;28;867;-69
2023/09/02 03:18:28;;;;;;;;;;;21.10;70.40;;;;;;5043026;28;1931;-69
2023/09/02 03:20:54;;;;;;;;;;;21.10;70.40;;;;;;5046166;28;1298;-69
2023/09/02 03:23:20;;;;;;;;;;;21.00;70.40;;;;;;5043186;28;887;-69
2023/09/02 03:25:45;;;;;;;;;;;21.10;70.40;;;;;;5032875;28;1463;-69
2023/09/02 03:28:12;;;;;;;;;;;21.10;70.40;;;;;;5043918;28;967;-69
2023/09/02 03:30:38;;;;;;;;;;;21.00;70.30;;;;;;5049939;28;1271;-69
2023/09/02 03:33:03;;;;;;;;;;;21.00;70.30;;;;;;5050344;28;887;-68
2023/09/02 03:35:29;;;;;;;;;;;21.10;70.40;;;;;;5050228;28;927;-69
2023/09/02 03:37:54;;;;;;;;;;;21.10;71.10;;;;;;5049533;28;1898;-68
2023/09/02 03:40:20;;;;;;;;;;;21.10;70.40;;;;;;5050085;28;1358;-69
2023/09/02 03:42:45;;;;;;;;;;;21.00;70.40;;;;;;5050239;28;894;-69
2023/09/02 03:45:11;;;;;;;;;;;21.00;70.40;;;;;;5049470;28;905;-69
2023/09/02 03:47:36;;;;;;;;;;;21.00;70.40;;;;;;5050186;28;847;-69
2023/09/02 03:50:02;;;;;;;;;;;21.00;70.40;;;;;;5049537;28;1280;-70
2023/09/02 03:52:28;;;;;;;;;;;21.10;70.40;;;;;;5050123;28;951;-68
2023/09/02 03:54:53;;;;;;;;;;;21.00;70.40;;;;;;5050835;28;884;-68
2023/09/02 03:57:19;;;;;;;;;;;21.10;70.50;;;;;;5050875;28;1038;-68
2023/09/02 03:59:44;;;;;;;;;;;21.00;70.40;;;;;;5049218;28;1910;-68
2023/09/02 04:02:09;;;;;;;;;;;21.00;70.40;;;;;;5054545;28;2473;-68
2023/09/02 04:04:35;;;;;;;;;;;21.00;70.40;;;;;;5050011;28;945;-68
2023/09/02 04:07:00;;;;;;;;;;;21.00;70.40;;;;;;5049930;28;801;-68
2023/09/02 04:09:27;;;;;;;;;;;21.00;70.40;;;;;;5049101;28;1081;-68
2023/09/02 04:11:52;;;;;;;;;;;21.10;70.50;;;;;;5049653;28;1280;-68
2023/09/02 04:14:18;;;;;;;;;;;21.00;70.50;;;;;;5048979;28;903;-69
2023/09/02 04:16:43;;;;;;;;;;;21.10;70.50;;;;;;5049636;28;1042;-68
2023/09/02 04:19:09;;;;;;;;;;;21.00;70.40;;;;;;5048901;28;1952;-68
2023/09/02 04:21:34;;;;;;;;;;;21.00;70.40;;;;;;5049722;28;1268;-67
2023/09/02 04:24:00;;;;;;;;;;;21.00;70.50;;;;;;5049419;28;1021;-67
2023/09/02 04:26:25;;;;;;;;;;;21.00;71.20;;;;;;5053962;28;824;-67
2023/09/02 04:28:52;;;;;;;;;;;21.00;70.50;;;;;;5052968;28;1344;-67
2023/09/02 04:31:18;;;;;;;;;;;21.10;70.50;;;;;;5052758;28;1249;-68
2023/09/02 04:33:43;;;;;;;;;;;21.10;70.60;;;;;;5053662;28;1325;-68
2023/09/02 04:36:09;;;;;;;;;;;21.00;70.50;;;;;;5053344;28;1256;-68
2023/09/02 04:38:34;;;;;;;;;;;21.00;70.50;;;;;;5044016;28;1902;-68
2023/09/02 04:41:09;;;;;;;;;;;21.10;70.60;;;;;;5053656;28;1345;-69
2023/09/02 04:43:34;;;;;;;;;;;21.00;70.50;;;;;;5046662;28;884;-69
2023/09/02 04:46:00;;;;;;;;;;;21.00;70.60;;;;;;5053056;28;935;-69
2023/09/02 04:48:26;;;;;;;;;;;21.00;70.50;;;;;;5051289;28;805;-69
2023/09/02 04:50:52;;;;;;;;;;;21.10;70.60;;;;;;5051867;28;1747;-69
2023/09/02 04:53:18;;;;;;;;;;;21.10;70.60;;;;;;5048555;28;907;-69
2023/09/02 04:55:43;;;;;;;;;;;21.00;70.50;;;;;;5053339;28;868;-69
2023/09/02 04:58:09;;;;;;;;;;;21.00;70.60;;;;;;5051976;28;1968;-69
2023/09/02 05:00:35;;;;;;;;;;;21.10;70.60;;;;;;5045679;28;1197;-69
2023/09/02 05:03:01;;;;;;;;;;;21.00;70.60;;;;;;5052931;28;910;-69
2023/09/02 05:05:29;;;;;;;;;;;21.10;70.60;;;;;;5047822;28;1066;-69
2023/09/02 05:07:54;;;;;;;;;;;21.00;70.50;;;;;;5052036;28;939;-69
2023/09/02 05:10:20;;;;;;;;;;;21.00;70.60;;;;;;5045273;28;1262;-69
2023/09/02 05:12:45;;;;;;;;;;;21.00;70.60;;;;;;5044760;28;893;-69
2023/09/02 05:15:11;;;;;;;;;;;21.00;70.60;;;;;;5048613;28;1996;-68
2023/09/02 05:17:36;;;;;;;;;;;21.00;70.60;;;;;;5045174;28;1957;-68
2023/09/02 05:20:03;;;;;;;;;;;21.00;70.60;;;;;;5050648;28;1328;-67
2023/09/02 05:22:28;;;;;;;;;;;21.10;70.60;;;;;;5045503;28;957;-67
2023/09/02 05:24:54;;;;;;;;;;;21.00;70.60;;;;;;5052041;28;1066;-67
2023/09/02 05:27:19;;;;;;;;;;;21.00;70.60;;;;;;5051530;28;1246;-68
2023/09/02 05:29:45;;;;;;;;;;;21.10;71.40;;;;;;5052129;28;1280;-68
2023/09/02 05:32:12;;;;;;;;;;;21.00;70.60;;;;;;5046254;28;978;-68
2023/09/02 05:34:37;;;;;;;;;;;21.10;70.70;;;;;;5051805;28;832;-67
2023/09/02 05:37:03;;;;;;;;;;;21.10;70.70;;;;;;5052213;28;863;-68
2023/09/02 05:39:28;;;;;;;;;;;21.00;70.60;;;;;;5052482;28;1961;-67
2023/09/02 05:41:54;;;;;;;;;;;21.00;70.60;;;;;;5053012;28;1232;-67
2023/09/02 05:44:19;;;;;;;;;;;21.00;70.70;;;;;;5052820;28;812;-67
2023/09/02 05:46:45;;;;;;;;;;;21.00;70.60;;;;;;5051964;28;954;-67
2023/09/02 05:49:11;;;;;;;;;;;21.10;70.70;;;;;;5051260;28;917;-67
2023/09/02 05:51:36;;;;;;;;;;;21.00;70.70;;;;;;5052173;28;1243;-67
2023/09/02 05:54:02;;;;;;;;;;;21.00;70.70;;;;;;5052054;28;1187;-67
2023/09/02 05:56:27;;;;;;;;;;;21.00;70.70;;;;;;5051861;28;907;-67
2023/09/02 05:58:53;;;;;;;;;;;21.00;70.70;;;;;;5051016;28;1963;-67
2023/09/02 06:01:19;;;;;;;;;;;21.00;70.70;;;;;;5051773;28;1320;-67
2023/09/02 06:03:44;;;;;;;;;;;21.00;70.70;;;;;;5051946;28;907;-68
2023/09/02 06:06:12;;;;;;;;;;;21.00;70.70;;;;;;5051736;28;966;-67
2023/09/02 06:08:38;;;;;;;;;;;21.00;70.70;;;;;;5050806;28;888;-68
2023/09/02 06:11:03;;;;;;;;;;;21.00;70.70;;;;;;5051731;28;1237;-67
2023/09/02 06:13:29;;;;;;;;;;;21.00;70.70;;;;;;5051591;28;864;-68
2023/09/02 06:16:04;;;;;;;;;;;21.00;70.70;;;;;;5051632;28;971;-69
2023/09/02 06:18:29;;;;;;;;;;;21.00;70.70;;;;;;5043191;28;1919;-67
2023/09/02 06:20:55;;;;;;;;;;;21.00;70.70;;;;;;5047113;28;1315;-67
2023/09/02 06:23:22;;;;;;;;;;;21.00;70.70;;;;;;5051475;28;863;-67
2023/09/02 06:25:54;;;;;;;;;;;21.00;70.70;;;;;;5043002;28;845;-67
2023/09/02 06:28:20;;;;;;;;;;;21.00;70.70;;;;;;5050581;28;1385;-67
2023/09/02 06:30:45;;;;;;;;;;;21.00;70.80;;;;;;5051381;28;1272;-66
2023/09/02 06:33:10;;;;;;;;;;;21.00;70.70;;;;;;5051594;28;938;-66
2023/09/02 06:35:36;;;;;;;;;;;21.00;70.80;;;;;;5051312;28;1002;-67
2023/09/02 06:38:02;;;;;;;;;;;21.10;70.80;;;;;;5050610;28;1902;-67
2023/09/02 06:40:30;;;;;;;;;;;21.00;70.70;;;;;;5051400;28;1379;-67
2023/09/02 06:42:56;;;;;;;;;;;21.00;70.70;;;;;;5051093;28;1022;-67
2023/09/02 06:45:21;;;;;;;;;;;21.00;70.70;;;;;;5051500;28;932;-67
2023/09/02 06:47:47;;;;;;;;;;;21.00;70.80;;;;;;5047678;28;922;-67
2023/09/02 06:50:12;;;;;;;;;;;21.00;70.80;;;;;;5043696;28;1365;-67
2023/09/02 06:52:38;;;;;;;;;;;21.00;70.80;;;;;;5051449;28;936;-67
2023/09/02 06:55:03;;;;;;;;;;;21.00;70.80;;;;;;5051103;28;828;-67
2023/09/02 06:57:29;;;;;;;;;;;21.00;70.80;;;;;;5050728;28;902;-68
2023/09/02 06:59:54;;;;;;;;;;;21.00;70.80;;;;;;5041435;28;1963;-68
2023/09/02 07:02:20;;;;;;;;;;;21.00;70.80;;;;;;5049629;28;903;-67
2023/09/02 07:04:47;;;;;;;;;;;21.00;70.80;;;;;;5050146;28;1061;-67
2023/09/02 07:07:13;;;;;;;;;;;21.00;70.80;;;;;;5050382;28;824;-67
2023/09/02 07:09:38;;;;;;;;;;;21.00;70.80;;;;;;5049885;28;846;-67
2023/09/02 07:12:04;;;;;;;;;;;21.00;70.80;;;;;;5049847;28;1310;-67
2023/09/02 07:14:29;;;;;;;;;;;21.00;70.80;;;;;;5050291;28;1101;-67
2023/09/02 07:16:54;;;;;;;;;;;21.00;70.80;;;;;;5050595;28;840;-66
2023/09/02 07:19:20;;;;;;;;;;;21.00;70.90;;;;;;5049672;28;1879;-67
2023/09/02 07:21:45;;;;;;;;;;;21.00;70.90;;;;;;5049730;28;1375;-66
2023/09/02 07:24:11;;;;;;;;;;;21.00;70.80;;;;;;5049801;28;1061;-66
2023/09/02 07:26:36;;;;;;;;;;;21.00;70.90;;;;;;5050501;28;876;-68
2023/09/02 07:29:02;;;;;;;;;;;21.00;70.90;;;;;;5049529;28;1321;-67
2023/09/02 07:31:27;;;;;;;;;;;21.00;70.90;;;;;;5049912;28;1707;-67
2023/09/02 07:33:53;;;;;;;;;;;21.00;70.90;;;;;;5049471;28;1238;-66
2023/09/02 07:36:18;;;;;;;;;;;21.00;70.90;;;;;;5042253;28;1415;-67
2023/09/02 07:38:46;;;;;;;;;;;21.10;71.00;;;;;;5048905;28;1907;-66
2023/09/02 07:41:12;;;;;;;;;;;21.00;70.90;;;;;;5049474;28;1598;-67
2023/09/02 07:43:37;;;;;;;;;;;21.00;71.00;;;;;;5049601;28;1439;-67
2023/09/02 07:46:03;;;;;;;;;;;21.00;70.90;;;;;;5042515;28;1463;-67
2023/09/02 07:48:28;;;;;;;;;;;21.00;70.90;;;;;;5049116;28;1315;-67
2023/09/02 07:50:54;;;;;;;;;;;21.00;71.00;;;;;;5048535;28;2137;-67
2023/09/02 07:53:19;;;;;;;;;;;21.10;71.00;;;;;;5049808;28;1210;-67
2023/09/02 07:55:45;;;;;;;;;;;21.10;71.00;;;;;;5049061;28;1438;-67
2023/09/02 07:58:10;;;;;;;;;;;21.00;71.00;;;;;;5049058;28;1910;-67
2023/09/02 08:00:36;;;;;;;;;;;21.10;71.00;;;;;;5050113;28;1293;-67
2023/09/02 08:03:02;;;;;;;;;;;21.10;71.00;;;;;;5041824;28;953;-67
2023/09/02 08:05:27;;;;;;;;;;;21.00;71.00;;;;;;5049905;28;851;-67
2023/09/02 08:07:53;;;;;;;;;;;21.10;71.00;;;;;;5049351;28;855;-67
2023/09/02 08:10:19;;;;;;;;;;;21.10;71.10;;;;;;5044752;28;1393;-67
2023/09/02 08:12:45;;;;;;;;;;;21.10;71.00;;;;;;5049959;28;951;-67
2023/09/02 08:15:11;;;;;;;;;;;21.10;71.10;;;;;;5049922;28;1506;-67
2023/09/02 08:17:39;;;;;;;;;;;21.10;71.00;;;;;;5049954;28;1403;-67
2023/09/02 08:20:05;;;;;;;;;;;21.10;71.10;;;;;;5047187;28;1914;-67
2023/09/02 08:22:31;;;;;;;;;;;21.00;71.00;;;;;;5049806;28;815;-67
2023/09/02 08:24:56;;;;;;;;;;;21.10;71.10;;;;;;5049823;28;946;-67
2023/09/02 08:27:22;;;;;;;;;;;21.10;71.10;;;;;;5049551;28;1347;-67
2023/09/02 08:29:47;;;;;;;;;;;21.00;71.00;;;;;;5049106;28;1400;-67
2023/09/02 08:32:13;;;;;;;;;;;21.10;71.10;;;;;;5049785;28;971;-67
2023/09/02 08:34:38;;;;;;;;;;;21.10;71.10;;;;;;5049214;28;856;-67
2023/09/02 08:37:04;;;;;;;;;;;21.10;71.10;;;;;;5049443;28;1006;-67
2023/09/02 08:39:30;;;;;;;;;;;21.00;71.10;;;;;;5049005;28;1914;-67
2023/09/02 08:41:55;;;;;;;;;;;21.10;71.10;;;;;;5049642;28;1197;-67
2023/09/02 08:44:21;;;;;;;;;;;21.10;71.10;;;;;;5049472;28;1713;-67
2023/09/02 08:46:47;;;;;;;;;;;21.10;71.20;;;;;;5045544;28;789;-67
2023/09/02 08:49:14;;;;;;;;;;;21.10;71.20;;;;;;5041585;28;1354;-67
2023/09/02 08:51:39;;;;;;;;;;;21.10;71.10;;;;;;5049475;28;1345;-67
2023/09/02 08:54:05;;;;;;;;;;;21.00;71.10;;;;;;5042517;28;1053;-67
2023/09/02 08:56:30;;;;;;;;;;;21.00;71.10;;;;;;5049688;28;817;-67
2023/09/02 08:58:56;;;;;;;;;;;21.10;71.10;;;;;;5048915;28;1960;-67
2023/09/02 09:01:22;;;;;;;;;;;21.10;71.20;;;;;;5049771;28;1329;-67
2023/09/02 09:03:50;;;;;;;;;;;21.10;71.20;;;;;;5049366;28;849;-67
2023/09/02 09:06:16;;;;;;;;;;;21.10;71.10;;;;;;5047216;28;1011;-67
2023/09/02 09:08:42;;;;;;;;;;;21.00;71.10;;;;;;5048529;28;855;-67
2023/09/02 09:11:07;;;;;;;;;;;21.10;71.10;;;;;;5051290;28;1325;-67
2023/09/02 09:13:33;;;;;;;;;;;21.10;71.20;;;;;;5046694;28;828;-67
2023/09/02 09:15:59;;;;;;;;;;;21.10;71.20;;;;;;5045356;28;886;-67
2023/09/02 09:18:24;;;;;;;;;;;21.00;71.10;;;;;;5053846;28;1894;-67
2023/09/02 09:20:50;;;;;;;;;;;21.10;71.20;;;;;;5053019;28;1273;-67
2023/09/02 09:23:15;;;;;;;;;;;21.10;71.20;;;;;;5046314;28;995;-67
2023/09/02 09:25:41;;;;;;;;;;;21.10;71.20;;;;;;5052854;28;1050;-67
2023/09/02 09:28:11;;;;;;;;;;;21.00;71.10;;;;;;5044934;28;1264;-67
2023/09/02 09:30:36;;;;;;;;;;;21.10;71.10;;;;;;5043726;28;1390;-67
2023/09/02 09:33:04;;;;;;;;;;;21.10;71.20;;;;;;5052660;28;875;-67
2023/09/02 09:35:30;;;;;;;;;;;21.10;71.20;;;;;;5052681;28;825;-67
2023/09/02 09:37:55;;;;;;;;;;;21.00;71.10;;;;;;5050528;28;1969;-67
2023/09/02 09:40:31;;;;;;;;;;;21.10;71.20;;;;;;5046080;28;1295;-67
2023/09/02 09:42:57;;;;;;;;;;;21.10;71.20;;;;;;5065772;28;1724;-67
2023/09/02 09:45:22;;;;;;;;;;;21.10;71.20;;;;;;5052529;28;840;-67
2023/09/02 09:47:47;;;;;;;;;;;21.10;71.20;;;;;;5048260;28;962;-67
2023/09/02 09:50:14;;;;;;;;;;;21.10;71.20;;;;;;5052266;28;1334;-67
2023/09/02 09:52:39;;;;;;;;;;;21.10;71.20;;;;;;5052027;28;899;-67
2023/09/02 09:55:05;;;;;;;;;;;21.00;71.10;;;;;;5052478;28;816;-67
2023/09/02 09:57:30;;;;;;;;;;;21.10;71.20;;;;;;5046308;28;926;-67
2023/09/02 09:59:56;;;;;;;;;;;21.10;71.20;;;;;;5051192;28;1910;-67
2023/09/02 10:02:21;;;;;;;;;;;21.10;71.20;;;;;;5051604;28;1003;-67
2023/09/02 10:04:53;;;;;;;;;;;21.00;71.10;;;;;;5052156;28;880;-67
2023/09/02 10:07:26;;;;;;;;;;;21.10;71.20;;;;;;5046374;28;875;-67
2023/09/02 10:09:55;;;;;;;;;;;21.00;71.10;;;;;;5046765;28;1313;-67
2023/09/02 10:12:20;;;;;;;;;;;21.10;71.20;;;;;;5051889;28;900;-67
2023/09/02 10:14:46;;;;;;;;;;;21.00;71.10;;;;;;5045094;28;881;-67
2023/09/02 10:17:12;;;;;;;;;;;21.10;71.20;;;;;;5046092;28;915;-67
2023/09/02 10:19:38;;;;;;;;;;;21.10;71.20;;;;;;5049826;28;1898;-67
2023/09/02 10:22:04;;;;;;;;;;;21.10;71.20;;;;;;5051787;28;1224;-67
2023/09/02 10:24:31;;;;;;;;;;;21.00;71.10;;;;;;5050828;28;994;-67
2023/09/02 10:26:57;;;;;;;;;;;21.10;71.20;;;;;;5048997;28;820;-67
2023/09/02 10:29:22;;;;;;;;;;;21.10;71.20;;;;;;5044616;28;1432;-67
2023/09/02 10:31:48;;;;;;;;;;;21.00;71.10;;;;;;5044869;28;1299;-67
2023/09/02 10:34:18;;;;;;;;;;;21.00;71.10;;;;;;5043019;28;847;-67
2023/09/02 10:36:55;;;;;;;;;;;21.10;71.20;;;;;;5051252;28;894;-67
2023/09/02 10:39:22;;;;;;;;;;;21.00;71.10;;;;;;5044475;28;1894;-67
2023/09/02 10:41:48;;;;;;;;;;;21.10;71.20;;;;;;5045525;28;1373;-67
2023/09/02 10:44:13;;;;;;;;;;;21.10;71.20;;;;;;5046267;28;821;-67
2023/09/02 10:46:39;;;;;;;;;;;21.10;71.20;;;;;;5044865;28;874;-67
2023/09/02 10:49:04;;;;;;;;;;;21.10;71.20;;;;;;5044749;28;899;-67
2023/09/02 10:51:30;;;;;;;;;;;21.10;71.30;;;;;;5050087;28;1365;-67
2023/09/02 10:53:55;;;;;;;;;;;21.10;71.20;;;;;;5051204;28;915;-67
2023/09/02 10:56:24;;;;;;;;;;;21.10;71.30;;;;;;5051206;28;929;-67
2023/09/02 10:58:50;;;;;;;;;;;21.10;71.30;;;;;;5045594;28;1901;-67
2023/09/02 11:01:15;;;;;;;;;;;21.10;71.20;;;;;;5051215;28;1329;-67
2023/09/02 11:03:47;;;;;;;;;;;21.10;71.20;;;;;;5051778;28;891;-67
2023/09/02 11:06:15;;;;;;;;;;;21.10;71.20;;;;;;5052578;28;788;-67
2023/09/02 11:08:40;;;;;;;;;;;21.10;71.20;;;;;;5049363;28;922;-67
2023/09/02 11:11:06;;;;;;;;;;;21.10;71.30;;;;;;5050691;28;1191;-67
2023/09/02 11:13:31;;;;;;;;;;;21.10;71.20;;;;;;5050398;28;1018;-67
2023/09/02 11:16:13;;;;;;;;;;;21.10;71.30;;;;;;5050738;28;768;-67
2023/09/02 11:18:40;;;;;;;;;;;21.10;71.20;;;;;;5039756;28;1898;-67
2023/09/02 11:21:05;;;;;;;;;;;21.10;71.30;;;;;;5050786;28;1354;-67
2023/09/02 11:23:33;;;;;;;;;;;21.10;71.30;;;;;;5042541;28;867;-67
2023/09/02 11:26:02;;;;;;;;;;;21.10;71.30;;;;;;5042645;28;884;-67
2023/09/02 11:28:28;;;;;;;;;;;21.10;71.30;;;;;;5043616;28;1308;-67
2023/09/02 11:31:08;;;;;;;;;;;21.10;71.30;;;;;;5050955;28;1343;-67
2023/09/02 11:33:33;;;;;;;;;;;21.10;72.00;;;;;;5048838;28;837;-67
2023/09/02 11:36:03;;;;;;;;;;;21.10;71.30;;;;;;5047343;28;911;-67
2023/09/02 11:38:28;;;;;;;;;;;21.10;71.30;;;;;;5045576;28;1965;-67
2023/09/02 11:40:53;;;;;;;;;;;21.10;71.30;;;;;;5049897;28;1323;-67
2023/09/02 11:43:19;;;;;;;;;;;21.10;71.30;;;;;;5050213;28;1251;-67
2023/09/02 11:45:45;;;;;;;;;;;21.10;71.30;;;;;;5050398;28;856;-67
2023/09/02 11:48:10;;;;;;;;;;;21.10;71.20;;;;;;5042186;28;1030;-67
2023/09/02 11:50:39;;;;;;;;;;;21.10;71.30;;;;;;5050534;28;1258;-67
2023/09/02 11:53:05;;;;;;;;;;;21.10;71.30;;;;;;5050046;28;828;-67
2023/09/02 11:55:30;;;;;;;;;;;21.10;71.20;;;;;;5045884;28;918;-67
2023/09/02 11:57:55;;;;;;;;;;;21.10;71.30;;;;;;5049117;28;1906;-67
2023/09/02 12:00:22;;;;;;;;;;;21.10;72.10;;;;;;5050446;28;1276;-67
2023/09/02 12:02:47;;;;;;;;;;;21.10;71.30;;;;;;5045555;28;1582;-67
2023/09/02 12:05:13;;;;;;;;;;;21.10;71.30;;;;;;5049767;28;788;-67
2023/09/02 12:07:40;;;;;;;;;;;21.10;71.30;;;;;;5050118;28;1057;-67
2023/09/02 12:10:09;;;;;;;;;;;21.10;71.30;;;;;;5048984;28;1219;-67
2023/09/02 12:12:35;;;;;;;;;;;21.10;71.40;;;;;;5048497;28;891;-67
2023/09/02 12:15:01;;;;;;;;;;;21.10;71.30;;;;;;5045528;28;819;-67
2023/09/02 12:17:27;;;;;;;;;;;21.10;71.30;;;;;;5044119;28;818;-67
2023/09/02 12:19:53;;;;;;;;;;;21.10;71.30;;;;;;5042400;28;1914;-67
2023/09/02 12:22:18;;;;;;;;;;;21.00;71.30;;;;;;5042969;28;1035;-67
2023/09/02 12:24:44;;;;;;;;;;;21.10;71.40;;;;;;5049993;28;931;-67
2023/09/02 12:27:12;;;;;;;;;;;21.10;71.30;;;;;;5049988;28;1340;-68
2023/09/02 12:29:38;;;;;;;;;;;21.10;71.30;;;;;;5041898;28;1244;-67
2023/09/02 12:32:03;;;;;;;;;;;21.10;71.40;;;;;;5049200;28;1304;-67
2023/09/02 12:34:33;;;;;;;;;;;21.10;71.30;;;;;;5050003;28;888;-67
2023/09/02 12:37:18;;;;;;;;;;;21.10;71.40;;;;;;5044422;28;1590;-67
2023/09/02 12:39:43;;;;;;;;;;;21.10;72.10;;;;;;5048384;28;1973;-67
2023/09/02 12:42:13;;;;;;;;;;;21.10;71.40;;;;;;5049792;28;910;-67
2023/09/02 12:44:46;;;;;;;;;;;21.10;71.40;;;;;;5049710;28;926;-67
2023/09/02 12:47:12;;;;;;;;;;;21.10;71.40;;;;;;5052310;28;918;-67
2023/09/02 12:49:40;;;;;;;;;;;21.10;71.40;;;;;;5048014;28;962;-67
2023/09/02 12:52:13;;;;;;;;;;;21.10;71.40;;;;;;5049385;28;1328;-67
2023/09/02 12:54:39;;;;;;;;;;;21.10;71.40;;;;;;5054733;28;898;-67
2023/09/02 12:57:04;;;;;;;;;;;21.10;71.40;;;;;;5053036;28;923;-67
2023/09/02 12:59:30;;;;;;;;;;;21.10;72.10;;;;;;5047586;28;1969;-67
2023/09/02 13:01:55;;;;;;;;;;;21.10;71.40;;;;;;5052606;28;1381;-67
2023/09/02 13:04:20;;;;;;;;;;;21.10;72.20;;;;;;5053375;28;989;-67
2023/09/02 13:06:46;;;;;;;;;;;21.10;71.40;;;;;;5053445;28;883;-67
2023/09/02 13:09:12;;;;;;;;;;;21.10;71.40;;;;;;5052454;28;854;-67
2023/09/02 13:11:37;;;;;;;;;;;21.10;71.40;;;;;;5046412;28;1302;-67
2023/09/02 13:14:02;;;;;;;;;;;21.10;71.40;;;;;;5052649;28;908;-67
2023/09/02 13:16:28;;;;;;;;;;;21.10;71.50;;;;;;5051899;28;1193;-67
2023/09/02 13:18:54;;;;;;;;;;;21.10;71.40;;;;;;5051814;28;1914;-67
2023/09/02 13:21:19;;;;;;;;;;;21.10;71.50;;;;;;5052980;28;1667;-67
2023/09/02 13:23:48;;;;;;;;;;;21.10;71.40;;;;;;5053353;28;827;-67
2023/09/02 13:26:17;;;;;;;;;;;21.10;71.40;;;;;;5045970;28;824;-67
2023/09/02 13:28:42;;;;;;;;;;;21.10;71.40;;;;;;5052216;28;1263;-67
2023/09/02 13:31:08;;;;;;;;;;;21.10;71.40;;;;;;5052382;28;1366;-67
2023/09/02 13:33:36;;;;;;;;;;;21.10;71.50;;;;;;5052603;28;894;-67
2023/09/02 13:36:01;;;;;;;;;;;21.10;71.50;;;;;;5052858;28;832;-67
2023/09/02 13:38:27;;;;;;;;;;;21.10;71.40;;;;;;5052049;28;1910;-68
2023/09/02 13:40:52;;;;;;;;;;;21.10;71.40;;;;;;5052653;28;1433;-67
2023/09/02 13:43:19;;;;;;;;;;;21.10;71.50;;;;;;5052813;28;898;-67
2023/09/02 13:45:44;;;;;;;;;;;21.10;71.40;;;;;;5050989;28;892;-67
2023/09/02 13:48:10;;;;;;;;;;;21.10;71.50;;;;;;5051929;28;833;-67
2023/09/02 13:50:36;;;;;;;;;;;21.10;71.50;;;;;;5052198;28;1226;-67
2023/09/02 13:53:01;;;;;;;;;;;21.10;71.50;;;;;;5052333;28;851;-67
2023/09/02 13:55:31;;;;;;;;;;;21.10;71.50;;;;;;5046431;28;932;-67
2023/09/02 13:57:56;;;;;;;;;;;21.10;71.50;;;;;;5041489;28;1212;-67
2023/09/02 14:00:37;;;;;;;;;;;21.10;71.50;;;;;;5051872;28;1890;-67
2023/09/02 14:03:03;;;;;;;;;;;21.10;71.50;;;;;;5046568;28;993;-67
2023/09/02 14:05:29;;;;;;;;;;;21.10;71.50;;;;;;5043734;28;1002;-67
2023/09/02 14:07:58;;;;;;;;;;;21.00;71.40;;;;;;5051575;28;883;-67
2023/09/02 14:10:24;;;;;;;;;;;21.10;71.50;;;;;;5051353;28;1233;-67
2023/09/02 14:12:49;;;;;;;;;;;21.10;71.50;;;;;;5052115;28;879;-67
2023/09/02 14:15:15;;;;;;;;;;;21.10;71.50;;;;;;5050705;28;883;-67
2023/09/02 14:17:41;;;;;;;;;;;21.10;71.50;;;;;;5051628;28;867;-67
2023/09/02 14:20:06;;;;;;;;;;;21.10;71.50;;;;;;5044809;28;1918;-67
2023/09/02 14:22:32;;;;;;;;;;;21.10;71.50;;;;;;5052007;28;797;-67
2023/09/02 14:24:57;;;;;;;;;;;21.10;71.50;;;;;;5046568;28;922;-67
2023/09/02 14:27:23;;;;;;;;;;;21.10;71.50;;;;;;5051916;28;1017;-67
2023/09/02 14:29:48;;;;;;;;;;;21.10;71.50;;;;;;5050929;28;1252;-67